sensor_id;sensor_type;location;lat;lon;timestamp;temperature;humidity
24638;DHT22;12773;50.162;8.548;2023-10-31T00:00:06;14.00;99.90
24638;DHT22;12773;50.162;8.548;2023-10-31T00:02:55;13.90;99.90
24638;DHT22;12773;50.162;8.548;2023-10-31T00:05:43;13.90;99.90
24638;DHT22;12773;50.162;8.548;2023-10-31T00:08:31;13.90;99.90
24638;DHT22;12773;50.162;8.548;2023-10-31T00:11:18;13.90;99.90
24638;DHT22;12773;50.162;8.548;2023-10-31T00:14:05;13.90;99.90
24638;DHT22;12773;50.162;8.548;2023-10-31T00:16:55;13.90;99.90
24638;DHT22;12773;50.162;8.548;2023-10-31T00:19:42;13.90;99.90
24638;DHT22;12773;50.162;8.548;2023-10-31T00:22:30;14.00;99.90
24638;DHT22;12773;50.162;8.548;2023-10-31T00:25:18;13.90;99.90
24638;DHT22;12773;50.162;8.548;2023-10-31T00:28:06;13.90;99.90
24638;DHT22;12773;50.162;8.548;2023-10-31T00:30:53;13.80;99.90
24638;DHT22;12773;50.162;8.548;2023-10-31T00:33:42;13.90;99.90
24638;DHT22;12773;50.162;8.548;2023-10-31T00:36:29;13.90;99.90
24638;DHT22;12773;50.162;8.548;2023-10-31T00:39:17;13.80;99.90
24638;DHT22;12773;50.162;8.548;2023-10-31T00:42:04;13.80;99.90
24638;DHT22;12773;50.162;8.548;2023-10-31T00:44:53;13.80;99.90
24638;DHT22;12773;50.162;8.548;2023-10-31T00:47:41;13.90;99.90
24638;DHT22;12773;50.162;8.548;2023-10-31T00:50:29;13.80;99.90
24638;DHT22;12773;50.162;8.548;2023-10-31T00:53:16;13.90;99.90
24638;DHT22;12773;50.162;8.548;2023-10-31T00:56:04;13.80;99.90
24638;DHT22;12773;50.162;8.548;2023-10-31T00:58:52;13.80;99.90
24638;DHT22;12773;50.162;8.548;2023-10-31T01:01:40;13.70;99.90
24638;DHT22;12773;50.162;8.548;2023-10-31T01:04:28;13.60;99.90
24638;DHT22;12773;50.162;8.548;2023-10-31T01:07:15;13.50;99.90
24638;DHT22;12773;50.162;8.548;2023-10-31T01:10:04;13.60;99.90
24638;DHT22;12773;50.162;8.548;2023-10-31T01:12:52;13.50;99.90
24638;DHT22;12773;50.162;8.548;2023-10-31T01:15:40;13.50;99.90
24638;DHT22;12773;50.162;8.548;2023-10-31T01:18:27;13.50;99.90
24638;DHT22;12773;50.162;8.548;2023-10-31T01:21:15;13.60;99.90
24638;DHT22;12773;50.162;8.548;2023-10-31T01:24:02;13.60;99.90
24638;DHT22;12773;50.162;8.548;2023-10-31T01:26:50;13.50;99.90
24638;DHT22;12773;50.162;8.548;2023-10-31T01:29:37;13.50;99.90
24638;DHT22;12773;50.162;8.548;2023-10-31T01:32:25;13.40;99.90
24638;DHT22;12773;50.162;8.548;2023-10-31T01:35:13;13.30;99.90
24638;DHT22;12773;50.162;8.548;2023-10-31T01:38:00;13.20;99.90
24638;DHT22;12773;50.162;8.548;2023-10-31T01:40:49;13.10;99.90
24638;DHT22;12773;50.162;8.548;2023-10-31T01:43:40;13.00;99.90
24638;DHT22;12773;50.162;8.548;2023-10-31T01:46:28;12.90;99.90
24638;DHT22;12773;50.162;8.548;2023-10-31T01:49:15;12.80;99.90
24638;DHT22;12773;50.162;8.548;2023-10-31T01:52:04;12.80;99.90
24638;DHT22;12773;50.162;8.548;2023-10-31T01:54:52;12.70;99.90
24638;DHT22;12773;50.162;8.548;2023-10-31T01:57:40;12.80;99.90
24638;DHT22;12773;50.162;8.548;2023-10-31T02:00:27;12.90;99.90
24638;DHT22;12773;50.162;8.548;2023-10-31T02:03:15;12.90;99.90
24638;DHT22;12773;50.162;8.548;2023-10-31T02:06:03;12.90;99.90
24638;DHT22;12773;50.162;8.548;2023-10-31T02:08:51;13.00;99.90
24638;DHT22;12773;50.162;8.548;2023-10-31T02:11:38;12.90;99.90
24638;DHT22;12773;50.162;8.548;2023-10-31T02:14:26;12.90;99.90
24638;DHT22;12773;50.162;8.548;2023-10-31T02:17:13;12.90;99.90
24638;DHT22;12773;50.162;8.548;2023-10-31T02:20:01;12.90;99.90
24638;DHT22;12773;50.162;8.548;2023-10-31T02:22:48;13.00;99.90
24638;DHT22;12773;50.162;8.548;2023-10-31T02:25:36;12.90;99.90
24638;DHT22;12773;50.162;8.548;2023-10-31T02:28:23;13.00;99.90
24638;DHT22;12773;50.162;8.548;2023-10-31T02:31:12;12.90;99.90
24638;DHT22;12773;50.162;8.548;2023-10-31T02:34:00;12.90;99.90
24638;DHT22;12773;50.162;8.548;2023-10-31T02:36:48;12.70;99.90
24638;DHT22;12773;50.162;8.548;2023-10-31T02:39:36;12.60;99.90
24638;DHT22;12773;50.162;8.548;2023-10-31T02:42:24;12.50;99.90
24638;DHT22;12773;50.162;8.548;2023-10-31T02:45:12;12.40;99.90
24638;DHT22;12773;50.162;8.548;2023-10-31T02:47:59;12.30;99.90
24638;DHT22;12773;50.162;8.548;2023-10-31T02:50:47;12.20;99.90
24638;DHT22;12773;50.162;8.548;2023-10-31T02:53:35;12.20;99.90
24638;DHT22;12773;50.162;8.548;2023-10-31T02:56:23;12.10;99.90
24638;DHT22;12773;50.162;8.548;2023-10-31T02:59:12;12.10;99.90
24638;DHT22;12773;50.162;8.548;2023-10-31T03:02:00;12.00;99.90
24638;DHT22;12773;50.162;8.548;2023-10-31T03:04:48;12.00;99.90
24638;DHT22;12773;50.162;8.548;2023-10-31T03:07:35;12.00;99.90
24638;DHT22;12773;50.162;8.548;2023-10-31T03:10:23;11.90;99.90
24638;DHT22;12773;50.162;8.548;2023-10-31T03:13:10;11.80;99.90
24638;DHT22;12773;50.162;8.548;2023-10-31T03:15:58;11.80;99.90
24638;DHT22;12773;50.162;8.548;2023-10-31T03:18:46;11.80;99.90
24638;DHT22;12773;50.162;8.548;2023-10-31T03:21:33;11.80;99.90
24638;DHT22;12773;50.162;8.548;2023-10-31T03:24:21;11.80;99.90
24638;DHT22;12773;50.162;8.548;2023-10-31T03:27:08;11.70;99.90
24638;DHT22;12773;50.162;8.548;2023-10-31T03:29:56;11.70;99.90
24638;DHT22;12773;50.162;8.548;2023-10-31T03:32:43;11.60;99.90
24638;DHT22;12773;50.162;8.548;2023-10-31T03:35:31;11.60;99.90
24638;DHT22;12773;50.162;8.548;2023-10-31T03:38:19;11.60;99.90
24638;DHT22;12773;50.162;8.548;2023-10-31T03:41:07;11.60;99.90
24638;DHT22;12773;50.162;8.548;2023-10-31T03:43:55;11.70;99.90
24638;DHT22;12773;50.162;8.548;2023-10-31T03:46:42;11.70;99.90
24638;DHT22;12773;50.162;8.548;2023-10-31T03:49:30;11.80;99.90
24638;DHT22;12773;50.162;8.548;2023-10-31T03:52:18;11.90;99.90
24638;DHT22;12773;50.162;8.548;2023-10-31T03:55:06;11.90;99.90
24638;DHT22;12773;50.162;8.548;2023-10-31T03:57:54;11.90;99.90
24638;DHT22;12773;50.162;8.548;2023-10-31T04:00:42;11.90;99.90
24638;DHT22;12773;50.162;8.548;2023-10-31T04:03:29;11.90;99.90
24638;DHT22;12773;50.162;8.548;2023-10-31T04:06:17;11.90;99.90
24638;DHT22;12773;50.162;8.548;2023-10-31T04:09:05;11.90;99.90
24638;DHT22;12773;50.162;8.548;2023-10-31T04:11:52;11.80;99.90
24638;DHT22;12773;50.162;8.548;2023-10-31T04:14:39;11.90;99.90
24638;DHT22;12773;50.162;8.548;2023-10-31T04:17:27;11.90;99.90
24638;DHT22;12773;50.162;8.548;2023-10-31T04:20:14;12.00;99.90
24638;DHT22;12773;50.162;8.548;2023-10-31T04:23:02;12.00;99.90
24638;DHT22;12773;50.162;8.548;2023-10-31T04:25:50;11.90;99.90
24638;DHT22;12773;50.162;8.548;2023-10-31T04:28:39;11.90;99.90
24638;DHT22;12773;50.162;8.548;2023-10-31T04:31:27;11.90;99.90
24638;DHT22;12773;50.162;8.548;2023-10-31T04:34:15;12.00;99.90
24638;DHT22;12773;50.162;8.548;2023-10-31T04:37:03;12.00;99.90
24638;DHT22;12773;50.162;8.548;2023-10-31T04:39:51;12.00;99.90
24638;DHT22;12773;50.162;8.548;2023-10-31T04:42:41;12.10;99.90
24638;DHT22;12773;50.162;8.548;2023-10-31T04:45:30;12.10;99.90
24638;DHT22;12773;50.162;8.548;2023-10-31T04:48:17;12.00;99.90
24638;DHT22;12773;50.162;8.548;2023-10-31T04:51:05;12.10;99.90
24638;DHT22;12773;50.162;8.548;2023-10-31T04:53:52;12.10;99.90
24638;DHT22;12773;50.162;8.548;2023-10-31T04:56:40;12.10;99.90
24638;DHT22;12773;50.162;8.548;2023-10-31T04:59:27;12.10;99.90
24638;DHT22;12773;50.162;8.548;2023-10-31T05:02:15;12.20;99.90
24638;DHT22;12773;50.162;8.548;2023-10-31T05:05:03;12.20;99.90
24638;DHT22;12773;50.162;8.548;2023-10-31T05:07:50;12.20;99.90
24638;DHT22;12773;50.162;8.548;2023-10-31T05:10:38;12.20;99.90
24638;DHT22;12773;50.162;8.548;2023-10-31T05:13:25;12.20;99.90
24638;DHT22;12773;50.162;8.548;2023-10-31T05:16:13;12.30;99.90
24638;DHT22;12773;50.162;8.548;2023-10-31T05:19:00;12.30;99.90
24638;DHT22;12773;50.162;8.548;2023-10-31T05:21:49;12.30;99.90
24638;DHT22;12773;50.162;8.548;2023-10-31T05:24:37;12.30;99.90
24638;DHT22;12773;50.162;8.548;2023-10-31T05:27:24;12.10;99.90
24638;DHT22;12773;50.162;8.548;2023-10-31T05:30:13;12.20;99.90
24638;DHT22;12773;50.162;8.548;2023-10-31T05:33:01;12.10;99.90
24638;DHT22;12773;50.162;8.548;2023-10-31T05:35:48;12.20;99.90
24638;DHT22;12773;50.162;8.548;2023-10-31T05:38:36;12.20;99.90
24638;DHT22;12773;50.162;8.548;2023-10-31T05:41:23;12.20;99.90
24638;DHT22;12773;50.162;8.548;2023-10-31T05:44:11;12.20;99.90
24638;DHT22;12773;50.162;8.548;2023-10-31T05:46:58;12.20;99.90
24638;DHT22;12773;50.162;8.548;2023-10-31T05:49:46;12.30;99.90
24638;DHT22;12773;50.162;8.548;2023-10-31T05:52:34;12.30;99.90
24638;DHT22;12773;50.162;8.548;2023-10-31T05:55:23;12.40;99.90
24638;DHT22;12773;50.162;8.548;2023-10-31T05:58:10;12.50;99.90
24638;DHT22;12773;50.162;8.548;2023-10-31T06:00:58;12.50;99.90
24638;DHT22;12773;50.162;8.548;2023-10-31T06:03:46;12.60;99.90
24638;DHT22;12773;50.162;8.548;2023-10-31T06:06:36;12.60;99.90
24638;DHT22;12773;50.162;8.548;2023-10-31T06:09:22;12.60;99.90
24638;DHT22;12773;50.162;8.548;2023-10-31T06:12:09;12.60;99.90
24638;DHT22;12773;50.162;8.548;2023-10-31T06:14:57;12.50;99.90
24638;DHT22;12773;50.162;8.548;2023-10-31T06:17:44;12.40;99.90
24638;DHT22;12773;50.162;8.548;2023-10-31T06:20:32;12.30;99.90
24638;DHT22;12773;50.162;8.548;2023-10-31T06:23:21;12.30;99.90
24638;DHT22;12773;50.162;8.548;2023-10-31T06:26:09;12.30;99.90
24638;DHT22;12773;50.162;8.548;2023-10-31T06:28:56;12.30;99.90
24638;DHT22;12773;50.162;8.548;2023-10-31T06:31:45;12.30;99.90
24638;DHT22;12773;50.162;8.548;2023-10-31T06:34:34;12.30;99.90
24638;DHT22;12773;50.162;8.548;2023-10-31T06:37:22;12.30;99.90
24638;DHT22;12773;50.162;8.548;2023-10-31T06:40:10;12.30;99.90
24638;DHT22;12773;50.162;8.548;2023-10-31T06:42:57;12.30;99.90
24638;DHT22;12773;50.162;8.548;2023-10-31T06:45:45;12.30;99.90
24638;DHT22;12773;50.162;8.548;2023-10-31T06:48:33;12.30;99.90
24638;DHT22;12773;50.162;8.548;2023-10-31T06:51:20;12.30;99.90
24638;DHT22;12773;50.162;8.548;2023-10-31T06:54:08;12.20;99.90
24638;DHT22;12773;50.162;8.548;2023-10-31T06:56:55;12.30;99.90
24638;DHT22;12773;50.162;8.548;2023-10-31T06:59:43;12.20;99.90
24638;DHT22;12773;50.162;8.548;2023-10-31T07:02:30;12.20;99.90
24638;DHT22;12773;50.162;8.548;2023-10-31T07:05:18;12.30;99.90
24638;DHT22;12773;50.162;8.548;2023-10-31T07:08:06;12.20;99.90
24638;DHT22;12773;50.162;8.548;2023-10-31T07:10:54;12.10;99.90
24638;DHT22;12773;50.162;8.548;2023-10-31T07:13:42;12.10;99.90
24638;DHT22;12773;50.162;8.548;2023-10-31T07:16:32;12.00;99.90
24638;DHT22;12773;50.162;8.548;2023-10-31T07:19:20;12.10;99.90
24638;DHT22;12773;50.162;8.548;2023-10-31T07:22:09;12.10;99.90
24638;DHT22;12773;50.162;8.548;2023-10-31T07:24:57;12.10;99.90
24638;DHT22;12773;50.162;8.548;2023-10-31T07:27:46;12.10;99.90
24638;DHT22;12773;50.162;8.548;2023-10-31T07:30:33;12.00;99.90
24638;DHT22;12773;50.162;8.548;2023-10-31T07:33:20;12.00;99.90
24638;DHT22;12773;50.162;8.548;2023-10-31T07:36:08;12.10;99.90
24638;DHT22;12773;50.162;8.548;2023-10-31T07:38:57;12.00;99.90
24638;DHT22;12773;50.162;8.548;2023-10-31T07:41:44;12.10;99.90
24638;DHT22;12773;50.162;8.548;2023-10-31T07:44:36;12.10;99.90
24638;DHT22;12773;50.162;8.548;2023-10-31T07:47:23;12.10;99.90
24638;DHT22;12773;50.162;8.548;2023-10-31T07:50:13;12.10;99.90
24638;DHT22;12773;50.162;8.548;2023-10-31T07:53:01;12.20;99.90
24638;DHT22;12773;50.162;8.548;2023-10-31T07:55:56;12.10;99.90
24638;DHT22;12773;50.162;8.548;2023-10-31T07:58:39;12.10;99.90
24638;DHT22;12773;50.162;8.548;2023-10-31T08:01:27;12.00;99.90
24638;DHT22;12773;50.162;8.548;2023-10-31T08:04:14;12.00;99.90
24638;DHT22;12773;50.162;8.548;2023-10-31T08:07:02;11.90;99.90
24638;DHT22;12773;50.162;8.548;2023-10-31T08:09:50;12.00;99.90
24638;DHT22;12773;50.162;8.548;2023-10-31T08:12:37;12.10;99.90
24638;DHT22;12773;50.162;8.548;2023-10-31T08:15:25;12.20;99.90
24638;DHT22;12773;50.162;8.548;2023-10-31T08:18:12;12.20;99.90
24638;DHT22;12773;50.162;8.548;2023-10-31T08:21:00;12.20;99.90
24638;DHT22;12773;50.162;8.548;2023-10-31T08:23:47;12.20;99.90
24638;DHT22;12773;50.162;8.548;2023-10-31T08:26:35;12.10;99.90
24638;DHT22;12773;50.162;8.548;2023-10-31T08:29:22;12.20;99.90
24638;DHT22;12773;50.162;8.548;2023-10-31T08:32:10;12.30;99.90
24638;DHT22;12773;50.162;8.548;2023-10-31T08:34:57;12.30;99.90
24638;DHT22;12773;50.162;8.548;2023-10-31T08:37:45;12.30;99.90
24638;DHT22;12773;50.162;8.548;2023-10-31T08:40:33;12.30;99.90
24638;DHT22;12773;50.162;8.548;2023-10-31T08:43:21;12.40;99.90
24638;DHT22;12773;50.162;8.548;2023-10-31T08:46:08;12.40;99.90
24638;DHT22;12773;50.162;8.548;2023-10-31T08:48:55;12.50;99.90
24638;DHT22;12773;50.162;8.548;2023-10-31T08:51:44;12.70;99.90
24638;DHT22;12773;50.162;8.548;2023-10-31T08:54:31;12.50;99.90
24638;DHT22;12773;50.162;8.548;2023-10-31T08:57:19;12.50;99.90
24638;DHT22;12773;50.162;8.548;2023-10-31T09:00:07;12.60;99.90
24638;DHT22;12773;50.162;8.548;2023-10-31T09:02:54;12.70;99.90
24638;DHT22;12773;50.162;8.548;2023-10-31T09:05:42;12.80;99.90
24638;DHT22;12773;50.162;8.548;2023-10-31T09:08:30;12.80;99.90
24638;DHT22;12773;50.162;8.548;2023-10-31T09:11:17;12.80;99.90
24638;DHT22;12773;50.162;8.548;2023-10-31T09:14:06;12.80;99.90
24638;DHT22;12773;50.162;8.548;2023-10-31T09:16:53;12.90;99.90
24638;DHT22;12773;50.162;8.548;2023-10-31T09:19:41;12.90;99.90
24638;DHT22;12773;50.162;8.548;2023-10-31T09:22:28;13.00;99.90
24638;DHT22;12773;50.162;8.548;2023-10-31T09:25:16;13.10;99.90
24638;DHT22;12773;50.162;8.548;2023-10-31T09:28:03;13.20;99.90
24638;DHT22;12773;50.162;8.548;2023-10-31T09:30:50;13.20;99.90
24638;DHT22;12773;50.162;8.548;2023-10-31T09:33:37;13.30;99.90
24638;DHT22;12773;50.162;8.548;2023-10-31T09:36:25;13.30;99.90
24638;DHT22;12773;50.162;8.548;2023-10-31T09:39:12;13.30;99.90
24638;DHT22;12773;50.162;8.548;2023-10-31T09:41:59;13.40;99.90
24638;DHT22;12773;50.162;8.548;2023-10-31T09:44:47;13.40;99.90
24638;DHT22;12773;50.162;8.548;2023-10-31T09:47:35;13.50;99.90
24638;DHT22;12773;50.162;8.548;2023-10-31T09:50:23;13.60;99.90
24638;DHT22;12773;50.162;8.548;2023-10-31T09:53:10;13.50;99.90
24638;DHT22;12773;50.162;8.548;2023-10-31T09:55:58;13.60;99.90
24638;DHT22;12773;50.162;8.548;2023-10-31T09:58:46;13.70;99.90
24638;DHT22;12773;50.162;8.548;2023-10-31T10:01:34;13.70;99.90
24638;DHT22;12773;50.162;8.548;2023-10-31T10:04:21;13.80;99.90
24638;DHT22;12773;50.162;8.548;2023-10-31T10:07:17;13.80;99.90
24638;DHT22;12773;50.162;8.548;2023-10-31T10:10:05;13.90;99.90
24638;DHT22;12773;50.162;8.548;2023-10-31T10:12:53;13.90;99.90
24638;DHT22;12773;50.162;8.548;2023-10-31T10:15:50;13.90;99.90
24638;DHT22;12773;50.162;8.548;2023-10-31T10:18:41;13.90;99.90
24638;DHT22;12773;50.162;8.548;2023-10-31T10:21:41;13.80;99.90
24638;DHT22;12773;50.162;8.548;2023-10-31T10:24:21;13.70;99.90
24638;DHT22;12773;50.162;8.548;2023-10-31T10:27:09;13.60;99.90
24638;DHT22;12773;50.162;8.548;2023-10-31T10:29:56;13.60;99.90
24638;DHT22;12773;50.162;8.548;2023-10-31T10:32:44;13.70;99.90
24638;DHT22;12773;50.162;8.548;2023-10-31T10:35:32;13.80;99.90
24638;DHT22;12773;50.162;8.548;2023-10-31T10:38:20;13.90;99.90
24638;DHT22;12773;50.162;8.548;2023-10-31T10:41:10;14.00;99.90
24638;DHT22;12773;50.162;8.548;2023-10-31T10:44:06;14.00;99.90
24638;DHT22;12773;50.162;8.548;2023-10-31T10:46:55;14.20;99.90
24638;DHT22;12773;50.162;8.548;2023-10-31T10:49:45;14.50;99.90
24638;DHT22;12773;50.162;8.548;2023-10-31T10:52:37;14.50;99.90
24638;DHT22;12773;50.162;8.548;2023-10-31T10:55:26;14.70;99.90
24638;DHT22;12773;50.162;8.548;2023-10-31T11:01:21;14.90;99.90
24638;DHT22;12773;50.162;8.548;2023-10-31T11:04:10;15.00;99.90
24638;DHT22;12773;50.162;8.548;2023-10-31T11:06:58;14.70;99.90
24638;DHT22;12773;50.162;8.548;2023-10-31T11:09:46;14.60;99.90
24638;DHT22;12773;50.162;8.548;2023-10-31T11:12:34;14.50;99.90
24638;DHT22;12773;50.162;8.548;2023-10-31T11:15:24;14.60;99.90
24638;DHT22;12773;50.162;8.548;2023-10-31T11:18:13;14.90;99.90
24638;DHT22;12773;50.162;8.548;2023-10-31T11:21:00;15.20;99.90
24638;DHT22;12773;50.162;8.548;2023-10-31T11:23:59;15.50;99.90
24638;DHT22;12773;50.162;8.548;2023-10-31T11:26:57;15.50;99.90
24638;DHT22;12773;50.162;8.548;2023-10-31T11:29:43;15.70;99.90
24638;DHT22;12773;50.162;8.548;2023-10-31T11:32:32;15.90;99.90
24638;DHT22;12773;50.162;8.548;2023-10-31T11:35:22;15.80;99.90
24638;DHT22;12773;50.162;8.548;2023-10-31T11:38:12;15.80;99.90
24638;DHT22;12773;50.162;8.548;2023-10-31T11:41:01;15.90;99.90
24638;DHT22;12773;50.162;8.548;2023-10-31T11:43:51;15.60;99.90
24638;DHT22;12773;50.162;8.548;2023-10-31T11:46:40;15.50;99.90
24638;DHT22;12773;50.162;8.548;2023-10-31T11:49:45;15.50;99.90
24638;DHT22;12773;50.162;8.548;2023-10-31T11:52:33;15.50;99.90
24638;DHT22;12773;50.162;8.548;2023-10-31T11:55:21;15.80;99.90
24638;DHT22;12773;50.162;8.548;2023-10-31T11:58:19;16.30;99.90
24638;DHT22;12773;50.162;8.548;2023-10-31T12:01:09;16.60;99.90
24638;DHT22;12773;50.162;8.548;2023-10-31T12:03:57;16.80;99.90
24638;DHT22;12773;50.162;8.548;2023-10-31T12:06:45;16.60;99.90
24638;DHT22;12773;50.162;8.548;2023-10-31T12:09:32;16.50;99.90
24638;DHT22;12773;50.162;8.548;2023-10-31T12:12:30;16.70;99.90
24638;DHT22;12773;50.162;8.548;2023-10-31T12:15:10;16.50;99.90
24638;DHT22;12773;50.162;8.548;2023-10-31T12:17:58;16.30;99.90
24638;DHT22;12773;50.162;8.548;2023-10-31T12:20:51;16.20;99.90
24638;DHT22;12773;50.162;8.548;2023-10-31T12:24:03;16.10;99.90
24638;DHT22;12773;50.162;8.548;2023-10-31T12:26:47;16.10;99.90
24638;DHT22;12773;50.162;8.548;2023-10-31T12:29:36;16.10;99.90
24638;DHT22;12773;50.162;8.548;2023-10-31T12:32:23;16.10;99.90
24638;DHT22;12773;50.162;8.548;2023-10-31T12:35:13;16.00;99.90
24638;DHT22;12773;50.162;8.548;2023-10-31T12:38:03;15.70;99.90
24638;DHT22;12773;50.162;8.548;2023-10-31T12:40:52;15.60;99.90
24638;DHT22;12773;50.162;8.548;2023-10-31T12:43:40;15.60;99.90
24638;DHT22;12773;50.162;8.548;2023-10-31T12:46:31;15.80;99.90
24638;DHT22;12773;50.162;8.548;2023-10-31T12:49:21;15.80;99.90
24638;DHT22;12773;50.162;8.548;2023-10-31T12:52:10;16.00;99.90
24638;DHT22;12773;50.162;8.548;2023-10-31T12:54:58;16.00;99.90
24638;DHT22;12773;50.162;8.548;2023-10-31T12:57:48;15.90;99.90
24638;DHT22;12773;50.162;8.548;2023-10-31T13:00:36;15.90;99.90
24638;DHT22;12773;50.162;8.548;2023-10-31T13:03:25;15.90;99.90
24638;DHT22;12773;50.162;8.548;2023-10-31T13:06:15;16.00;99.90
24638;DHT22;12773;50.162;8.548;2023-10-31T13:09:02;16.00;99.90
24638;DHT22;12773;50.162;8.548;2023-10-31T13:11:52;16.20;99.90
24638;DHT22;12773;50.162;8.548;2023-10-31T13:14:39;16.10;99.90
24638;DHT22;12773;50.162;8.548;2023-10-31T13:17:27;16.00;99.90
24638;DHT22;12773;50.162;8.548;2023-10-31T13:20:18;16.00;99.90
24638;DHT22;12773;50.162;8.548;2023-10-31T13:23:06;15.90;99.90
24638;DHT22;12773;50.162;8.548;2023-10-31T13:25:53;15.80;99.90
24638;DHT22;12773;50.162;8.548;2023-10-31T13:28:41;15.70;99.90
24638;DHT22;12773;50.162;8.548;2023-10-31T13:31:28;15.80;99.90
24638;DHT22;12773;50.162;8.548;2023-10-31T13:34:16;15.80;99.90
24638;DHT22;12773;50.162;8.548;2023-10-31T13:37:03;15.90;99.90
24638;DHT22;12773;50.162;8.548;2023-10-31T13:39:50;16.00;99.90
24638;DHT22;12773;50.162;8.548;2023-10-31T13:42:38;16.20;99.90
24638;DHT22;12773;50.162;8.548;2023-10-31T13:45:27;16.30;99.90
24638;DHT22;12773;50.162;8.548;2023-10-31T13:48:14;16.30;99.90
24638;DHT22;12773;50.162;8.548;2023-10-31T13:51:02;16.40;99.90
24638;DHT22;12773;50.162;8.548;2023-10-31T13:53:49;16.40;99.90
24638;DHT22;12773;50.162;8.548;2023-10-31T13:56:36;16.50;99.90
24638;DHT22;12773;50.162;8.548;2023-10-31T13:59:24;16.80;99.90
24638;DHT22;12773;50.162;8.548;2023-10-31T14:02:12;17.20;99.90
24638;DHT22;12773;50.162;8.548;2023-10-31T14:05:00;17.50;99.90
24638;DHT22;12773;50.162;8.548;2023-10-31T14:07:48;17.40;99.90
24638;DHT22;12773;50.162;8.548;2023-10-31T14:10:42;17.20;99.90
24638;DHT22;12773;50.162;8.548;2023-10-31T14:13:26;17.20;99.90
24638;DHT22;12773;50.162;8.548;2023-10-31T14:16:14;17.30;99.90
24638;DHT22;12773;50.162;8.548;2023-10-31T14:19:02;17.20;99.90
24638;DHT22;12773;50.162;8.548;2023-10-31T14:21:50;17.30;99.90
24638;DHT22;12773;50.162;8.548;2023-10-31T14:24:38;17.30;99.90
24638;DHT22;12773;50.162;8.548;2023-10-31T14:27:25;17.20;99.90
24638;DHT22;12773;50.162;8.548;2023-10-31T14:30:13;17.30;99.90
24638;DHT22;12773;50.162;8.548;2023-10-31T14:33:00;17.30;99.90
24638;DHT22;12773;50.162;8.548;2023-10-31T14:35:48;17.30;99.90
24638;DHT22;12773;50.162;8.548;2023-10-31T14:38:36;17.30;99.90
24638;DHT22;12773;50.162;8.548;2023-10-31T14:41:23;17.20;99.90
24638;DHT22;12773;50.162;8.548;2023-10-31T14:44:11;17.10;99.90
24638;DHT22;12773;50.162;8.548;2023-10-31T14:46:59;16.90;99.90
24638;DHT22;12773;50.162;8.548;2023-10-31T14:49:46;16.90;99.90
24638;DHT22;12773;50.162;8.548;2023-10-31T14:52:34;16.70;99.90
24638;DHT22;12773;50.162;8.548;2023-10-31T14:55:21;16.40;99.90
24638;DHT22;12773;50.162;8.548;2023-10-31T14:58:09;16.30;99.90
24638;DHT22;12773;50.162;8.548;2023-10-31T15:00:56;16.10;99.90
24638;DHT22;12773;50.162;8.548;2023-10-31T15:03:44;15.90;99.90
24638;DHT22;12773;50.162;8.548;2023-10-31T15:06:32;15.70;99.90
24638;DHT22;12773;50.162;8.548;2023-10-31T15:09:19;15.60;99.90
24638;DHT22;12773;50.162;8.548;2023-10-31T15:12:07;15.60;99.90
24638;DHT22;12773;50.162;8.548;2023-10-31T15:14:54;15.50;99.90
24638;DHT22;12773;50.162;8.548;2023-10-31T15:17:42;15.50;99.90
24638;DHT22;12773;50.162;8.548;2023-10-31T15:20:30;15.50;99.90
24638;DHT22;12773;50.162;8.548;2023-10-31T15:23:17;15.40;99.90
24638;DHT22;12773;50.162;8.548;2023-10-31T15:26:05;15.30;99.90
24638;DHT22;12773;50.162;8.548;2023-10-31T15:28:54;15.20;99.90
24638;DHT22;12773;50.162;8.548;2023-10-31T15:31:45;15.20;99.90
24638;DHT22;12773;50.162;8.548;2023-10-31T15:34:34;15.20;99.90
24638;DHT22;12773;50.162;8.548;2023-10-31T15:37:23;15.20;99.90
24638;DHT22;12773;50.162;8.548;2023-10-31T15:40:11;15.20;99.90
24638;DHT22;12773;50.162;8.548;2023-10-31T15:42:58;15.10;99.90
24638;DHT22;12773;50.162;8.548;2023-10-31T15:45:46;15.00;99.90
24638;DHT22;12773;50.162;8.548;2023-10-31T15:48:34;15.00;99.90
24638;DHT22;12773;50.162;8.548;2023-10-31T15:51:21;14.90;99.90
24638;DHT22;12773;50.162;8.548;2023-10-31T15:54:09;14.90;99.90
24638;DHT22;12773;50.162;8.548;2023-10-31T15:56:56;14.90;99.90
24638;DHT22;12773;50.162;8.548;2023-10-31T15:59:44;14.90;99.90
24638;DHT22;12773;50.162;8.548;2023-10-31T16:02:31;14.90;99.90
24638;DHT22;12773;50.162;8.548;2023-10-31T16:05:22;14.90;99.90
24638;DHT22;12773;50.162;8.548;2023-10-31T16:08:10;14.90;99.90
24638;DHT22;12773;50.162;8.548;2023-10-31T16:10:57;14.90;99.90
24638;DHT22;12773;50.162;8.548;2023-10-31T16:13:45;14.80;99.90
24638;DHT22;12773;50.162;8.548;2023-10-31T16:16:32;14.80;99.90
24638;DHT22;12773;50.162;8.548;2023-10-31T16:19:19;14.70;99.90
24638;DHT22;12773;50.162;8.548;2023-10-31T16:22:07;14.70;99.90
24638;DHT22;12773;50.162;8.548;2023-10-31T16:24:56;14.80;99.90
24638;DHT22;12773;50.162;8.548;2023-10-31T16:27:43;14.80;99.90
24638;DHT22;12773;50.162;8.548;2023-10-31T16:30:32;14.80;99.90
24638;DHT22;12773;50.162;8.548;2023-10-31T16:33:19;14.90;99.90
24638;DHT22;12773;50.162;8.548;2023-10-31T16:36:07;14.80;99.90
24638;DHT22;12773;50.162;8.548;2023-10-31T16:38:55;14.90;99.90
24638;DHT22;12773;50.162;8.548;2023-10-31T16:41:43;14.90;99.90
24638;DHT22;12773;50.162;8.548;2023-10-31T16:44:31;15.10;99.90
24638;DHT22;12773;50.162;8.548;2023-10-31T16:47:18;15.10;99.90
24638;DHT22;12773;50.162;8.548;2023-10-31T16:50:07;15.00;99.90
24638;DHT22;12773;50.162;8.548;2023-10-31T16:52:55;15.10;99.90
24638;DHT22;12773;50.162;8.548;2023-10-31T16:55:43;15.10;99.90
24638;DHT22;12773;50.162;8.548;2023-10-31T16:58:31;15.00;99.90
24638;DHT22;12773;50.162;8.548;2023-10-31T17:01:18;15.00;99.90
24638;DHT22;12773;50.162;8.548;2023-10-31T17:04:06;15.00;99.90
24638;DHT22;12773;50.162;8.548;2023-10-31T17:06:53;15.00;99.90
24638;DHT22;12773;50.162;8.548;2023-10-31T17:09:41;15.00;99.90
24638;DHT22;12773;50.162;8.548;2023-10-31T17:12:29;15.10;99.90
24638;DHT22;12773;50.162;8.548;2023-10-31T17:15:16;15.10;99.90
24638;DHT22;12773;50.162;8.548;2023-10-31T17:18:04;15.00;99.90
24638;DHT22;12773;50.162;8.548;2023-10-31T17:21:00;15.00;99.90
24638;DHT22;12773;50.162;8.548;2023-10-31T17:23:43;14.90;99.90
24638;DHT22;12773;50.162;8.548;2023-10-31T17:26:31;14.80;99.90
24638;DHT22;12773;50.162;8.548;2023-10-31T17:29:18;14.70;99.90
24638;DHT22;12773;50.162;8.548;2023-10-31T17:32:06;14.70;99.90
24638;DHT22;12773;50.162;8.548;2023-10-31T17:34:56;14.70;99.90
24638;DHT22;12773;50.162;8.548;2023-10-31T17:37:43;14.60;99.90
24638;DHT22;12773;50.162;8.548;2023-10-31T17:40:31;14.70;99.90
24638;DHT22;12773;50.162;8.548;2023-10-31T17:43:18;14.60;99.90